Terminal Aerodrome Forecast
Issued by NWS

Home | Current Version | Previous Version | Text Only | Print | Product List | Glossary On
Versions: 1 2 3 4 5 6 7 8 9 10 11 12 13 14 15 16 17 18 19
083
FTUS41 KBGM 091340 AAA
TAFRME
TAF AMD
KRME 091340Z 0914/1012 11008KT 5SM -SN OVC035
      TEMPO 0914/0916 2SM -SN BKN025
     FM091600 11008KT 2SM -SN OVC025
     FM091900 13004KT P6SM BKN025 OVC035
     FM100000 11003KT 1 1/2SM -SN OVC015
     FM100400 VRB03KT P6SM BKN050=

USA.gov is the U.S. government's official web portal to all federal, state and local government web resources and services.